Terminal Aerodrome Forecast
Issued by NWS Tallahassee, FL

Current Version | Previous Version | Text Only | Print | Product List | Glossary On
Versions: 1 2 3 4 5 6 7 8 9 10 11 12 13
400
FTUS42 KTAE 141737
TAFTLH
TAF
KTLH 141737Z 1418/1518 13007KT P6SM SCT250
     FM150000 11003KT P6SM BKN250
     FM151200 14006KT P6SM SCT025
     FM151500 16015G20KT P6SM BKN030 OVC150=

USA.gov is the U.S. government's official web portal to all federal, state and local government web resources and services.